Latest Weather Observations for Cape Naturaliste

IDW60801

Issued at 5:33 pm WST Tuesday 28 June 2016 (issued every 30 minutes, with the page automatically refreshed every 10 minutes)

About weather observations | Map of weather stations | Latest weather observations for WA | Other Formats
Station Details ID: 009519 Name: CAPE NATURALISTE Lat: -33.54 Lon: 115.02 Height: 109.0 m
Data from the previous 72 hours. | See also: Recent months at Cape Naturaliste
Date/Time
WST
Temp
°C
App
Temp
°C
Dew
Point
°C
Rel
Hum
%
Delta-T
°C
Wind Press
QNH
hPa
Press
MSL
hPa
Rain since
9am
mm
Dir  Spd
km/h
Gust
km/h
Spd
kts
Gust
kts
28/05:30pm 15.0 9.8 11.6 80 1.8 WSW 30 39 16 21 1010.4 1010.3 1.0
28/05:00pm 15.5 10.4 11.9 79 2.0 WSW 30 39 16 21 1010.2 1010.1 1.0
28/04:30pm 16.2 11.2 12.2 77 2.2 W 30 39 16 21 1009.8 1009.7 1.0
28/04:00pm 16.4 11.5 12.4 77 2.2 W 30 37 16 20 1009.6 1009.5 1.0
28/03:30pm 17.3 12.7 13.6 79 2.1 W 30 39 16 21 1009.3 1009.3 1.0
28/03:00pm 17.2 13.2 14.1 82 1.8 W 28 35 15 19 1009.1 1009.1 1.0
28/02:30pm 16.6 12.8 13.5 82 1.8 W 26 33 14 18 1009.0 1009.0 1.0
28/02:00pm 16.7 12.3 11.8 73 2.7 W 26 35 14 19 1009.0 1009.0 0.8
28/01:30pm 18.4 14.6 13.5 73 2.8 W 26 33 14 18 1008.9 1008.9 0.0
28/01:00pm 18.3 14.3 14.2 77 2.4 W 28 37 15 20 1009.1 1009.1 0.0
28/12:30pm 17.0 12.7 13.1 78 2.2 W 28 39 15 21 1009.2 1009.2 0.0
28/12:00pm 17.2 12.8 12.9 76 2.4 WNW 28 37 15 20 1009.8 1009.7 0.0
28/11:30am 17.2 12.5 13.1 77 2.3 WNW 30 39 16 21 1010.2 1010.1 0.0
28/11:00am 16.7 12.7 14.0 84 1.5 WNW 28 35 15 19 1010.1 1010.0 0.0
28/10:30am 16.4 13.6 14.4 88 1.1 NW 22 30 12 16 1010.3 1010.2 0.0
28/10:00am 14.9 10.5 12.9 88 1.1 NW 28 35 15 19 1010.6 1010.5 0.0
28/09:30am 15.0 10.3 13.2 89 1.0 NW 30 41 16 22 1010.6 1010.5 0.0
28/09:00am 14.4 9.8 12.4 88 1.1 NW 28 35 15 19 1010.3 1010.2 4.0
28/08:30am 14.2 8.8 12.2 88 1.1 NW 32 43 17 23 1009.9 1009.8 3.8
28/08:00am 14.6 9.7 12.6 88 1.1 NW 30 41 16 22 1009.9 1009.8 3.4
28/07:30am 15.1 10.3 12.8 86 1.3 NNW 30 39 16 21 1009.9 1009.8 2.6
28/07:00am 14.8 9.9 12.5 86 1.3 WNW 30 37 16 20 1009.8 1009.7 2.6
28/06:30am 14.9 9.4 12.4 85 1.4 NW 33 52 18 28 1009.6 1009.5 2.6
28/06:26am 15.3 10.9 12.8 85 1.4 WNW 28 50 15 27 1009.6 1009.5 2.4
28/06:00am 14.7 10.1 12.4 86 1.3 WNW 28 41 15 22 1009.8 1009.7 2.4
28/05:30am 14.9 9.7 12.8 87 1.2 WNW 32 41 17 22 1009.6 1009.5 2.4
28/05:00am 14.9 11.7 13.1 89 1.0 NW 22 35 12 19 1009.8 1009.7 2.4
28/04:30am 14.2 8.8 12.1 87 1.1 NW 32 48 17 26 1009.8 1009.7 2.4
28/04:27am 14.9 10.1 12.8 87 1.2 NW 30 48 16 26 1009.8 1009.7 2.2
28/04:00am 14.3 10.1 12.3 88 1.1 NW 26 37 14 20 1010.0 1009.9 2.2
28/03:30am 14.6 10.1 12.5 87 1.2 NNW 28 48 15 26 1010.4 1010.3 1.2
28/03:00am 14.5 9.0 12.0 85 1.4 NW 32 44 17 24 1010.4 1010.3 1.2
28/02:30am 15.7 10.3 10.9 73 2.6 N 30 39 16 21 1010.7 1010.6 0.2
28/02:00am 15.7 9.9 10.7 72 2.7 N 32 41 17 22 1010.6 1010.5 0.2
28/01:30am 15.5 10.0 10.5 72 2.7 N 30 39 16 21 1010.7 1010.6 0.2
28/01:00am 15.5 10.0 10.7 73 2.6 N 30 41 16 22 1011.2 1011.1 0.2
28/12:30am 15.5 9.6 10.3 71 2.7 N 32 39 17 21 1011.5 1011.4 0.2
28/12:00am 15.6 10.4 10.4 71 2.8 N 28 37 15 20 1012.0 1011.9 0.2
 
Date/Time
WST
Temp
°C
App
Temp
°C
Dew
Point
°C
Rel
Hum
%
Delta-T
°C
Wind Press
QNH
hPa
Press
MSL
hPa
Rain since
9am
mm
Dir  Spd
km/h
Gust
km/h
Spd
kts
Gust
kts
27/11:30pm 15.8 10.4 10.8 72 2.7 NNW 30 39 16 21 1012.2 1012.1 0.2
27/11:00pm 15.8 11.2 11.0 73 2.6 NNW 26 39 14 21 1012.6 1012.5 0.0
27/10:30pm 15.7 11.4 10.9 73 2.6 N 24 35 13 19 1012.9 1012.8 0.0
27/10:00pm 15.7 11.0 10.7 72 2.7 NNW 26 37 14 20 1013.0 1012.9 0.0
27/09:30pm 15.4 10.2 10.4 72 2.6 NNW 28 39 15 21 1013.2 1013.1 0.0
27/09:00pm 15.6 10.6 11.0 74 2.5 NNW 28 37 15 20 1013.4 1013.3 0.0
27/08:30pm 15.1 10.7 11.7 80 1.8 NNW 26 35 14 19 1013.5 1013.4 0.0
27/08:00pm 14.3 8.8 10.7 79 1.9 NNW 30 41 16 22 1013.6 1013.5 0.0
27/07:30pm 15.8 10.4 10.8 72 2.7 N 30 37 16 20 1013.7 1013.6 0.0
27/07:00pm 15.8 10.3 10.6 71 2.8 N 30 37 16 20 1013.8 1013.7 0.0
27/06:30pm 15.5 9.6 10.3 71 2.7 NNW 32 41 17 22 1013.7 1013.6 0.0
27/06:00pm 15.6 9.7 10.4 71 2.8 N 32 43 17 23 1013.6 1013.5 0.0
27/05:30pm 15.4 9.4 10.0 70 2.8 NNW 32 41 17 22 1013.5 1013.4 0.0
27/05:00pm 15.9 9.7 10.2 69 3.0 NNW 33 43 18 23 1013.5 1013.4 0.0
27/04:30pm 15.7 9.4 9.8 68 3.1 NNW 33 44 18 24 1013.4 1013.3 0.0
27/04:00pm 16.2 9.7 10.3 68 3.1 NNW 35 46 19 25 1013.6 1013.5 0.0
27/03:30pm 17.2 10.7 10.3 64 3.7 N 35 48 19 26 1013.8 1013.7 0.0
27/03:00pm 16.3 9.2 9.5 64 3.6 N 37 46 20 25 1013.9 1013.8 0.0
27/02:30pm 17.3 9.9 9.7 61 4.0 N 39 56 21 30 1013.8 1013.7 0.0
27/02:00pm 17.0 9.7 10.1 64 3.7 N 39 52 21 28 1014.1 1014.0 0.0
27/01:30pm 17.4 9.6 11.0 66 3.5 N 43 56 23 30 1014.3 1014.2 0.0
27/01:00pm 16.6 8.8 11.1 70 3.0 N 43 57 23 31 1014.6 1014.5 0.0
27/12:30pm 16.6 9.4 12.0 74 2.5 N 41 54 22 29 1015.4 1015.3 0.0
27/12:00pm 16.7 9.8 11.6 72 2.8 NNW 39 50 21 27 1015.9 1015.8 0.0
27/11:30am 17.4 10.3 12.1 71 2.9 NNW 41 52 22 28 1016.5 1016.4 0.0
27/11:00am 16.0 8.8 10.7 71 2.8 NNW 39 50 21 27 1016.9 1016.9 0.0
27/10:46am 15.7 9.1 11.3 75 2.4 NNW 37 56 20 30 1017.0 1017.0 0.0
27/10:30am 15.6 8.9 11.0 74 2.5 NNW 37 48 20 26 1017.1 1017.1 0.0
27/10:01am 15.3 8.3 11.1 76 2.3 NNW 39 57 21 31 1017.5 1017.5 0.0
27/10:00am 15.2 7.7 11.0 76 2.2 NNW 41 57 22 31 1017.4 1017.4 0.0
27/09:40am 16.2 9.8 10.7 70 2.9 NNW 35 54 19 29 1017.5 1017.5 0.0
27/09:30am 17.2 10.6 9.9 62 3.9 NW 35 46 19 25 1017.5 1017.5 0.0
27/09:12am 15.5 9.6 10.3 71 2.7 NNW 32 50 17 27 1017.5 1017.5 0.0
27/09:00am 15.7 8.0 10.0 69 3.0 NNW 41 56 22 30 1017.5 1017.5 1.8
27/08:53am 16.3 10.1 9.9 66 3.4 NNW 33 52 18 28 1017.4 1017.4 1.8
27/08:30am 15.8 10.6 10.1 69 3.0 NNW 28 35 15 19 1017.5 1017.5 1.8
27/08:00am 14.8 9.1 9.8 72 2.6 N 30 41 16 22 1017.4 1017.4 1.8
27/07:30am 14.8 9.4 7.8 63 3.5 NNW 26 35 14 19 1017.5 1017.5 1.8
27/07:00am 14.6 10.4 9.6 72 2.6 NNW 22 35 12 19 1017.5 1017.5 1.8
27/06:30am 13.9 7.6 9.1 73 2.5 NW 32 48 17 26 1017.6 1017.6 1.6
27/06:00am 14.2 9.2 9.6 74 2.4 NW 26 35 14 19 1017.5 1017.5 1.6
27/05:30am 13.7 7.8 10.3 80 1.8 NNW 32 44 17 24 1017.6 1017.6 1.6
27/05:10am 12.3 6.0 9.1 81 1.6 NW 32 50 17 27 1017.8 1017.8 1.6
27/05:00am 13.2 6.2 9.8 80 1.7 WNW 37 54 20 29 1018.0 1018.0 1.6
27/04:45am 14.0 7.5 9.0 72 2.5 WNW 33 50 18 27 1017.7 1017.7 0.6
27/04:30am 15.9 8.8 7.9 59 4.0 NNW 35 44 19 24 1017.6 1017.6 0.4
27/04:00am 15.4 10.6 8.9 65 3.3 NNW 24 35 13 19 1017.8 1017.8 0.4
27/03:30am 15.1 9.8 8.6 65 3.3 NNW 26 33 14 18 1018.1 1018.1 0.4
27/03:00am 14.2 8.7 9.0 71 2.6 WNW 28 39 15 21 1018.4 1018.4 0.4
27/02:30am 14.7 10.9 9.1 69 2.9 WNW 19 26 10 14 1018.5 1018.5 0.4
27/02:00am 15.3 10.4 8.5 64 3.5 NW 24 32 13 17 1018.7 1018.7 0.4
27/01:30am 14.5 10.8 10.1 75 2.3 NNW 20 28 11 15 1019.0 1018.9 0.4
27/01:00am 13.9 10.7 10.1 78 2.0 NW 17 24 9 13 1019.3 1019.2 0.4
27/12:30am 13.2 9.9 9.6 79 1.8 NW 17 20 9 11 1019.6 1019.5 0.4
27/12:00am 13.1 9.5 9.7 80 1.7 NNW 19 26 10 14 1020.1 1020.0 0.4
 
Date/Time
WST
Temp
°C
App
Temp
°C
Dew
Point
°C
Rel
Hum
%
Delta-T
°C
Wind Press
QNH
hPa
Press
MSL
hPa
Rain since
9am
mm
Dir  Spd
km/h
Gust
km/h
Spd
kts
Gust
kts
26/11:30pm 12.6 9.1 8.7 77 2.0 NW 17 20 9 11 1020.4 1020.3 0.4
26/11:00pm 14.2 10.1 8.8 70 2.7 NW 20 24 11 13 1020.8 1020.7 0.2
26/10:30pm 13.6 9.5 8.7 72 2.5 WNW 20 28 11 15 1020.9 1020.8 0.2
26/10:00pm 14.6 10.3 9.4 71 2.7 NW 22 32 12 17 1021.0 1020.9 0.0
26/09:30pm 13.7 8.8 8.3 70 2.7 WNW 24 37 13 20 1021.1 1021.0 0.0
26/09:00pm 14.1 10.2 8.5 69 2.8 WNW 19 26 10 14 1021.2 1021.1 0.0
26/08:30pm 14.7 9.9 8.9 68 3.0 W 24 33 13 18 1021.3 1021.2 0.0
26/08:00pm 14.0 10.1 8.8 71 2.6 W 19 26 10 14 1021.3 1021.2 0.0
26/07:30pm 13.7 9.1 8.3 70 2.7 WNW 22 30 12 16 1021.4 1021.3 0.0
26/07:00pm 13.5 8.1 8.1 70 2.7 WNW 26 37 14 20 1021.5 1021.4 0.0
26/06:30pm 14.4 9.7 7.7 64 3.3 WNW 22 30 12 16 1021.3 1021.2 0.0
26/06:00pm 14.6 9.4 7.4 62 3.6 WNW 24 30 13 16 1021.1 1021.0 0.0
26/05:30pm 14.4 9.5 6.7 60 3.8 NW 22 28 12 15 1021.2 1021.1 0.0
26/05:00pm 14.5 10.0 6.1 57 4.0 WNW 19 28 10 15 1021.4 1021.3 0.0
26/04:30pm 14.9 8.7 6.2 56 4.2 W 28 37 15 20 1021.4 1021.3 0.0
26/04:00pm 16.1 10.2 7.6 57 4.3 W 28 37 15 20 1021.5 1021.4 0.0
26/03:30pm 15.2 8.6 6.2 55 4.4 WNW 30 39 16 21 1021.6 1021.5 0.0
26/03:00pm 16.1 10.2 7.3 56 4.4 WNW 28 37 15 20 1021.5 1021.4 0.0
26/02:30pm 15.7 10.7 8.2 61 3.8 WNW 24 30 13 16 1021.5 1021.4 0.0
26/02:00pm 15.8 10.9 8.5 62 3.7 W 24 32 13 17 1021.7 1021.6 0.0
26/01:30pm 15.5 10.7 7.5 59 4.0 WNW 22 32 12 17 1022.1 1022.0 0.0
26/01:00pm 15.5 10.3 7.3 58 4.1 WNW 24 30 13 16 1022.4 1022.3 0.0
26/12:30pm 15.4 9.7 6.9 57 4.2 WNW 26 35 14 19 1022.9 1022.8 0.0
26/12:00pm 15.6 10.5 7.6 59 4.0 WNW 24 32 13 17 1023.4 1023.3 0.0
26/11:30am 15.7 10.1 7.2 57 4.2 W 26 35 14 19 1023.7 1023.6 0.0
26/11:00am 15.4 10.5 6.9 57 4.2 WNW 22 30 12 16 1024.0 1023.9 0.0
26/10:30am 16.2 10.9 6.6 53 4.7 WNW 24 32 13 17 1024.2 1024.1 0.0
26/10:00am 15.7 11.1 5.6 51 4.8 WNW 19 26 10 14 1024.3 1024.2 0.0
26/09:30am 15.6 10.0 5.2 50 5.0 W 24 30 13 16 1024.3 1024.2 0.0
26/09:00am 13.9 8.7 5.3 56 4.0 W 22 35 12 19 1024.2 1024.1 0.0
26/08:30am 13.8 8.1 4.9 55 4.2 W 24 33 13 18 1024.1 1024.0 0.0
26/08:00am 13.3 7.7 5.2 58 3.8 W 24 30 13 16 1023.8 1023.7 0.0
26/07:30am 13.4 7.8 5.6 59 3.7 W 24 33 13 18 1023.5 1023.4 0.0
26/07:00am 13.7 7.8 5.6 58 3.8 W 26 33 14 18 1023.4 1023.3 0.0
26/06:30am 13.6 9.2 6.7 63 3.3 W 19 28 10 15 1023.2 1023.1 0.0
26/06:00am 12.9 7.9 4.8 58 3.7 WNW 20 28 11 15 1023.1 1023.0 0.0
26/05:30am 12.2 7.7 4.2 58 3.6 WNW 17 24 9 13 1023.0 1022.9 0.0
26/05:00am 11.9 7.4 4.4 60 3.4 WNW 17 20 9 11 1022.9 1022.8 0.0
26/04:30am 11.5 6.8 3.3 57 3.6 WNW 17 20 9 11 1022.9 1022.8 0.0
26/04:00am 12.1 7.4 3.3 55 3.9 WSW 17 24 9 13 1023.1 1023.0 0.0
26/03:30am 12.4 7.6 4.4 58 3.7 W 19 28 10 15 1023.1 1023.0 0.0
26/03:00am 12.4 7.8 5.8 64 3.1 W 19 24 10 13 1023.2 1023.1 0.0
26/02:30am 12.8 7.7 6.2 64 3.1 WSW 22 32 12 17 1023.3 1023.2 0.0
26/02:00am 13.0 8.4 8.1 72 2.4 WSW 22 30 12 16 1023.4 1023.3 0.0
26/01:30am 11.8 10.7 8.3 79 1.7 WNW 4 9 2 5 1023.3 1023.2 0.0
26/01:00am 11.1 8.8 7.6 79 1.7 ESE 9 11 5 6 1023.2 1023.1 0.0
26/12:30am 11.6 9.3 7.5 76 2.0 E 9 11 5 6 1023.1 1023.0 0.0
26/12:00am 11.9 10.0 7.6 75 2.1 E 7 9 4 5 1023.3 1023.2 0.0
 
Date/Time
WST
Temp
°C
App
Temp
°C
Dew
Point
°C
Rel
Hum
%
Delta-T
°C
Wind Press
QNH
hPa
Press
MSL
hPa
Rain since
9am
mm
Dir  Spd
km/h
Gust
km/h
Spd
kts
Gust
kts
25/11:30pm 11.6 9.9 7.5 76 2.0 E 6 9 3 5 1023.5 1023.4 0.0
25/11:00pm 11.3 9.6 7.4 77 1.9 E 6 7 3 4 1023.3 1023.2 0.0
25/10:30pm 11.4 9.1 7.5 77 1.9 E 9 11 5 6 1023.1 1023.0 0.0
25/10:00pm 11.5 9.2 7.4 76 2.0 E 9 9 5 5 1023.2 1023.1 0.0
25/09:30pm 11.6 9.7 7.5 76 2.0 ESE 7 9 4 5 1023.5 1023.4 0.0
25/09:00pm 11.6 9.8 7.3 75 2.1 ESE 6 7 3 4 1023.5 1023.4 0.0
25/08:30pm 11.6 9.3 7.3 75 2.1 ESE 9 11 5 6 1023.5 1023.4 0.0
25/08:00pm 11.1 9.1 7.0 76 2.0 ESE 7 9 4 5 1023.4 1023.3 0.0
25/07:30pm 11.3 9.7 7.8 79 1.7 SW 6 9 3 5 1023.2 1023.1 0.0
25/07:00pm 10.6 8.2 7.1 79 1.7 SE 9 11 5 6 1023.1 1023.0 0.0
25/06:30pm 9.9 6.9 5.9 76 1.9 SE 11 15 6 8 1022.8 1022.7 0.0
25/06:00pm 10.3 6.8 5.5 72 2.2 SE 13 13 7 7 1022.5 1022.4 0.0

Other Formats:

Comma delimited format used in spreadsheet applications
http://www.bom.gov.au/fwo/IDW60801/IDW60801.94600.axf

JavaScript Object Notation format (JSON) in row-major order
http://www.bom.gov.au/fwo/IDW60801/IDW60801.94600.json